Terminal Aerodrome Forecast
Issued by NWS Blacksburg, VA

Current Version | Previous Version | Graphics & Text | Print | Product List | Glossary On
Versions: 1 2 3 4 5 6 7 8 9 10 11 12 13 14 15 16 17 18 19 20 21 22 23 24 25 26 27 28 29 30 31 32 33 34 35 36 37 38 39 40 41 42 43 44 45 46 47 48 49 50
000
FTUS41 KRNK 161453 AAB
TAFBLF
TAF AMD
KBLF 161453Z 1615/1712 00000KT 6SM BR SCT002 BKN040
     FM161600 18004KT P6SM SCT008 BKN040
     FM162300 18004KT P6SM BKN040
     FM170400 17004KT P6SM OVC020
     FM170800 18005KT P6SM VCSH BKN020=

USA.gov is the U.S. government's official web portal to all federal, state and local government web resources and services.